Time;durP1;ratioP1;P1;durP2;ratioP2;P2;SDS_P1;SDS_P2;PMS_P1;PMS_P2;Temp;Humidity;BMP_temperature;BMP_pressure;BME280_temperature;BME280_humidity;BME280_pressure;Samples;Min_cycle;Max_cycle;Signal;HPM_P1;HPM_P2
2022/12/11 00:01:15;;;;;;;0.97;0.57;;;8.10;94.90;;;;;;5092802;28;20067;-67
2022/12/11 00:03:41;;;;;;;0.80;0.50;;;8.10;94.20;;;;;;5093343;28;20036;-66
2022/12/11 00:06:09;;;;;;;0.70;0.40;;;8.10;94.60;;;;;;5093164;28;20525;-67
2022/12/11 00:08:35;;;;;;;1.07;0.70;;;8.10;94.90;;;;;;5093144;28;20040;-67
2022/12/11 00:11:01;;;;;;;1.50;0.80;;;8.10;94.80;;;;;;5093064;28;20374;-67
2022/12/11 00:13:26;;;;;;;1.20;0.80;;;8.20;93.90;;;;;;5092786;28;20482;-66
2022/12/11 00:15:52;;;;;;;2.97;2.43;;;8.20;93.70;;;;;;5092905;28;20035;-66
2022/12/11 00:18:18;;;;;;;1.87;1.30;;;8.20;92.50;;;;;;5092820;28;20040;-67
2022/12/11 00:20:43;;;;;;;1.63;1.30;;;8.20;92.10;;;;;;5092897;28;20028;-67
2022/12/11 00:23:09;;;;;;;1.70;1.20;;;8.20;92.50;;;;;;5092791;28;20036;-66
2022/12/11 00:25:41;;;;;;;0.77;0.60;;;8.20;92.50;;;;;;5092768;28;20028;-67
2022/12/11 00:28:07;;;;;;;0.43;0.32;;;8.20;92.40;;;;;;5093002;28;20046;-67
2022/12/11 00:30:32;;;;;;;0.93;0.77;;;8.20;92.20;;;;;;5092995;28;20111;-67
2022/12/11 00:32:58;;;;;;;0.97;0.70;;;8.20;92.50;;;;;;5092706;28;20401;-67
2022/12/11 00:35:24;;;;;;;1.33;0.93;;;8.20;92.50;;;;;;5093029;28;20395;-66
2022/12/11 00:37:49;;;;;;;1.53;0.80;;;8.20;92.90;;;;;;5091891;28;20036;-66
2022/12/11 00:40:15;;;;;;;2.47;1.10;;;8.10;93.50;;;;;;5092862;28;20048;-66
2022/12/11 00:42:41;;;;;;;3.37;1.50;;;8.20;94.10;;;;;;5092815;28;20036;-67
2022/12/11 00:45:07;;;;;;;2.83;1.60;;;8.10;94.30;;;;;;5092971;28;20032;-66
2022/12/11 00:47:32;;;;;;;3.37;1.80;;;8.10;94.40;;;;;;5092775;28;20032;-67
2022/12/11 00:49:58;;;;;;;3.03;2.17;;;8.10;94.80;;;;;;5092718;28;20114;-67
2022/12/11 00:52:24;;;;;;;6.03;2.10;;;8.00;95.30;;;;;;5092985;28;20432;-66
2022/12/11 00:54:49;;;;;;;3.87;2.47;;;8.00;95.40;;;;;;5092942;28;20032;-66
2022/12/11 00:57:15;;;;;;;3.43;2.33;;;8.00;96.00;;;;;;5092799;28;20035;-66
2022/12/11 00:59:41;;;;;;;3.57;2.30;;;8.00;96.30;;;;;;5092786;28;20076;-66
2022/12/11 01:02:06;;;;;;;2.93;1.90;;;7.90;96.20;;;;;;5092658;28;20028;-67
2022/12/11 01:04:34;;;;;;;4.33;2.00;;;7.90;96.20;;;;;;5092717;28;20040;-66
2022/12/11 01:07:00;;;;;;;3.63;2.27;;;7.90;96.60;;;;;;5092919;28;20033;-66
2022/12/11 01:12:10;;;;;;;4.60;2.37;;;7.90;96.80;;;;;;5092559;28;20561;-66
2022/12/11 01:14:35;;;;;;;4.50;2.10;;;7.90;96.80;;;;;;5092628;28;20032;-67
2022/12/11 01:17:01;;;;;;;3.90;2.57;;;7.90;96.80;;;;;;5092256;28;20036;-67
2022/12/11 01:19:27;;;;;;;3.77;2.57;;;7.90;96.80;;;;;;5092369;28;20048;-67
2022/12/11 01:21:53;;;;;;;4.30;2.47;;;7.90;96.80;;;;;;5092568;28;20059;-67
2022/12/11 01:24:18;;;;;;;3.60;2.60;;;7.90;97.10;;;;;;5094050;28;20066;-67
2022/12/11 01:26:44;;;;;;;4.70;2.60;;;7.90;97.00;;;;;;5095976;28;20077;-66
2022/12/11 01:29:10;;;;;;;3.83;2.80;;;7.90;96.90;;;;;;5095994;28;20496;-66
2022/12/11 01:31:37;;;;;;;3.23;2.30;;;7.90;97.00;;;;;;5095946;28;20020;-66
2022/12/11 01:34:03;;;;;;;3.50;2.33;;;7.90;96.90;;;;;;5095910;28;20474;-66
2022/12/11 01:36:28;;;;;;;4.17;2.20;;;7.90;96.80;;;;;;5095912;28;20024;-66
2022/12/11 01:38:55;;;;;;;3.83;2.10;;;7.90;96.80;;;;;;5095723;28;20097;-67
2022/12/11 01:41:20;;;;;;;2.67;1.90;;;8.00;96.80;;;;;;5095661;28;20028;-66
2022/12/11 01:44:07;;;;;;;3.13;1.50;;;8.00;96.90;;;;;;5095717;28;20383;-66
2022/12/11 01:46:35;;;;;;;2.20;1.40;;;8.00;96.60;;;;;;5095741;28;20478;-67
2022/12/11 01:49:04;;;;;;;2.20;1.60;;;7.90;96.70;;;;;;5095695;28;20585;-65
2022/12/11 01:51:36;;;;;;;2.77;1.63;;;7.90;96.60;;;;;;5095435;28;20040;-67
2022/12/11 01:54:06;;;;;;;2.30;1.50;;;7.90;96.70;;;;;;5095686;28;20032;-67
2022/12/11 01:56:35;;;;;;;1.73;1.40;;;7.90;96.70;;;;;;5095456;28;20074;-67
2022/12/11 01:59:06;;;;;;;3.00;1.70;;;7.90;96.70;;;;;;5092865;28;20040;-67
2022/12/11 02:01:37;;;;;;;2.37;1.57;;;7.90;96.80;;;;;;5092357;28;20043;-66
2022/12/11 02:04:05;;;;;;;3.50;2.10;;;7.90;97.00;;;;;;5093008;28;20085;-66
2022/12/11 02:06:49;;;;;;;2.93;2.00;;;7.90;97.20;;;;;;5094912;28;20036;-67
2022/12/11 02:09:21;;;;;;;2.87;1.90;;;7.90;97.50;;;;;;5095089;28;20102;-67
2022/12/11 02:11:55;;;;;;;2.45;1.90;;;7.90;97.70;;;;;;5095136;28;20043;-67
2022/12/11 02:14:48;;;;;;;3.60;1.87;;;7.80;97.80;;;;;;5094504;28;20429;-66
2022/12/11 02:17:37;;;;;;;3.03;2.23;;;7.90;97.80;;;;;;5094757;28;20043;-67
2022/12/11 02:20:40;;;;;;;4.17;2.63;;;7.90;97.90;;;;;;5094543;28;20044;-67
2022/12/11 02:23:12;;;;;;;3.20;2.40;;;7.80;98.00;;;;;;5085520;28;20367;-66
2022/12/11 02:25:59;;;;;;;2.33;1.87;;;7.90;97.90;;;;;;5094775;28;20042;-66
2022/12/11 02:28:36;;;;;;;4.63;2.40;;;7.90;97.80;;;;;;5094572;28;20039;-66
2022/12/11 02:31:17;;;;;;;3.53;2.20;;;7.80;97.70;;;;;;5094935;28;20039;-66
2022/12/11 02:34:04;;;;;;;4.70;2.40;;;7.80;97.90;;;;;;5094741;28;20478;-66
2022/12/11 02:36:36;;;;;;;5.33;2.37;;;7.80;97.90;;;;;;5093731;28;20039;-67
2022/12/11 02:39:04;;;;;;;4.07;2.73;;;7.80;97.80;;;;;;5094385;28;20482;-67
2022/12/11 02:41:32;;;;;;;3.40;2.10;;;7.80;97.90;;;;;;5094745;28;20036;-67
2022/12/11 02:43:59;;;;;;;2.47;1.93;;;7.80;97.90;;;;;;5094094;28;20031;-67
2022/12/11 02:46:26;;;;;;;3.53;1.80;;;7.80;98.10;;;;;;5094482;28;20028;-66
2022/12/11 02:48:54;;;;;;;2.97;1.77;;;7.80;98.00;;;;;;5094264;28;20032;-67
2022/12/11 02:51:31;;;;;;;2.70;1.73;;;7.80;97.90;;;;;;5094539;28;20039;-66
2022/12/11 02:53:58;;;;;;;2.40;1.63;;;7.80;98.00;;;;;;5094573;28;20028;-66
2022/12/11 02:56:39;;;;;;;2.27;1.40;;;7.80;97.90;;;;;;5094405;28;20042;-66
2022/12/11 02:59:14;;;;;;;2.00;1.47;;;7.80;97.90;;;;;;5092992;28;20043;-67
2022/12/11 03:01:40;;;;;;;1.83;1.20;;;7.80;98.00;;;;;;5093985;28;20443;-67
2022/12/11 03:04:06;;;;;;;2.13;1.53;;;7.80;98.20;;;;;;5094162;28;20073;-66
2022/12/11 03:06:36;;;;;;;2.53;1.60;;;7.80;98.30;;;;;;5094040;28;20032;-66
2022/12/11 03:09:03;;;;;;;2.30;1.40;;;7.80;98.20;;;;;;5094219;28;20107;-67
2022/12/11 03:11:29;;;;;;;2.53;1.70;;;7.80;98.20;;;;;;5094250;28;20079;-66
2022/12/11 03:13:55;;;;;;;2.40;1.50;;;7.80;98.20;;;;;;5094258;28;20060;-67
2022/12/11 03:16:34;;;;;;;3.03;1.60;;;7.80;98.30;;;;;;5093882;28;20110;-66
2022/12/11 03:19:19;;;;;;;3.47;1.63;;;7.80;98.30;;;;;;5093486;28;20074;-66
2022/12/11 03:21:54;;;;;;;3.17;1.90;;;7.80;98.40;;;;;;5093944;28;20520;-66
2022/12/11 03:24:31;;;;;;;2.60;1.70;;;7.80;98.40;;;;;;5092699;28;20036;-66
2022/12/11 03:27:04;;;;;;;5.03;1.77;;;7.80;98.50;;;;;;5094046;28;20386;-66
2022/12/11 03:29:36;;;;;;;4.70;1.67;;;7.80;98.40;;;;;;5092531;28;20046;-66
2022/12/11 03:32:13;;;;;;;3.67;1.95;;;7.80;98.50;;;;;;5092301;28;20451;-66
2022/12/11 03:35:17;;;;;;;2.50;1.80;;;7.80;98.50;;;;;;5093724;28;20513;-66
2022/12/11 03:37:44;;;;;;;2.30;1.73;;;7.80;98.40;;;;;;5082367;28;20043;-66
2022/12/11 03:40:14;;;;;;;3.97;1.63;;;7.80;98.60;;;;;;5093382;28;20158;-66
2022/12/11 03:42:43;;;;;;;2.40;1.63;;;7.80;98.80;;;;;;5093683;28;20024;-66
2022/12/11 03:45:10;;;;;;;2.67;1.83;;;7.70;98.80;;;;;;5093561;28;20036;-66
2022/12/11 03:47:38;;;;;;;2.73;2.17;;;7.80;98.80;;;;;;5091480;28;20032;-66
2022/12/11 03:50:06;;;;;;;3.03;2.03;;;7.80;98.80;;;;;;5093406;28;20036;-67
2022/12/11 03:52:33;;;;;;;2.60;2.00;;;7.80;98.70;;;;;;5093443;28;20032;-66
2022/12/11 03:55:02;;;;;;;3.40;2.00;;;7.80;98.70;;;;;;5093383;28;20055;-66
2022/12/11 03:57:34;;;;;;;2.80;1.73;;;7.80;98.70;;;;;;5093282;28;20032;-66
2022/12/11 03:59:59;;;;;;;3.53;2.03;;;7.80;98.60;;;;;;5093088;28;20079;-66
2022/12/11 04:02:25;;;;;;;3.20;2.10;;;7.80;98.60;;;;;;5093447;28;20060;-66
2022/12/11 04:04:51;;;;;;;2.60;1.93;;;7.70;98.80;;;;;;5091728;28;20036;-66
2022/12/11 04:07:17;;;;;;;4.57;2.37;;;7.80;98.80;;;;;;5093094;28;20071;-67
2022/12/11 04:09:42;;;;;;;2.67;2.13;;;7.80;98.70;;;;;;5093582;28;20111;-66
2022/12/11 04:12:08;;;;;;;2.73;1.73;;;7.80;98.70;;;;;;5093252;28;20039;-67
2022/12/11 04:25:32;;;;;;;2.60;2.03;;;7.80;98.80;;;;;;5093302;28;20101;-67
2022/12/11 04:27:58;;;;;;;3.97;2.00;;;7.80;98.70;;;;;;5093063;28;20439;-66
2022/12/11 04:30:25;;;;;;;4.20;1.90;;;7.80;98.50;;;;;;5093059;28;20424;-65
2022/12/11 04:32:52;;;;;;;2.60;1.70;;;7.80;98.50;;;;;;5092780;28;20591;-66
2022/12/11 04:35:18;;;;;;;3.17;1.80;;;7.80;98.50;;;;;;5092935;28;20035;-67
2022/12/11 04:37:44;;;;;;;2.10;1.60;;;7.80;98.40;;;;;;5092937;28;20093;-66
2022/12/11 04:40:13;;;;;;;2.57;1.80;;;7.80;98.10;;;;;;5092803;28;20048;-66
2022/12/11 04:42:39;;;;;;;3.20;1.50;;;7.80;98.10;;;;;;5092805;28;20124;-66
2022/12/11 04:45:06;;;;;;;1.60;1.37;;;7.70;97.90;;;;;;5092580;28;20089;-66
2022/12/11 04:47:34;;;;;;;4.03;1.97;;;7.80;97.90;;;;;;5092557;28;20060;-66
2022/12/11 04:50:00;;;;;;;2.93;2.17;;;7.70;98.20;;;;;;5092976;28;20067;-66
2022/12/11 04:52:26;;;;;;;4.73;1.93;;;7.70;98.30;;;;;;5092824;28;20060;-66
2022/12/11 04:54:52;;;;;;;6.17;2.33;;;7.70;98.60;;;;;;5092806;28;20039;-66
2022/12/11 04:57:19;;;;;;;4.10;2.00;;;7.70;98.60;;;;;;5092365;28;20086;-65
2022/12/11 04:59:45;;;;;;;2.50;1.80;;;7.70;98.40;;;;;;5096292;28;20043;-66
2022/12/11 05:02:10;;;;;;;3.20;2.20;;;7.80;98.60;;;;;;5096484;28;20032;-66
2022/12/11 05:04:36;;;;;;;5.77;2.60;;;7.80;98.40;;;;;;5096580;28;20051;-66
2022/12/11 05:07:02;;;;;;;4.27;2.60;;;7.70;98.50;;;;;;5096301;28;20113;-66
2022/12/11 05:09:28;;;;;;;4.07;2.10;;;7.70;98.60;;;;;;5096549;28;20136;-67
2022/12/11 05:11:54;;;;;;;4.60;2.70;;;7.70;98.60;;;;;;5096580;28;20036;-66
2022/12/11 05:14:20;;;;;;;3.70;2.40;;;7.70;98.60;;;;;;5096527;28;20032;-66
2022/12/11 05:16:46;;;;;;;4.10;3.27;;;7.70;98.60;;;;;;5096235;28;20478;-66
2022/12/11 05:19:12;;;;;;;4.20;3.37;;;7.70;98.50;;;;;;5096028;28;20040;-66
2022/12/11 05:21:38;;;;;;;3.80;3.20;;;7.70;98.60;;;;;;5096244;28;20107;-67
2022/12/11 05:24:04;;;;;;;1.97;1.70;;;7.70;98.40;;;;;;5096441;28;20070;-66
2022/12/11 05:26:29;;;;;;;3.47;1.87;;;7.70;98.20;;;;;;5096169;28;20035;-66
2022/12/11 05:28:56;;;;;;;2.60;1.53;;;7.70;97.80;;;;;;5096048;28;20414;-66
2022/12/11 05:31:24;;;;;;;4.97;1.90;;;7.70;97.60;;;;;;5096111;28;20432;-65
2022/12/11 05:33:51;;;;;;;2.37;1.50;;;7.70;97.60;;;;;;5095788;28;20042;-66
2022/12/11 05:36:21;;;;;;;1.87;1.10;;;7.70;97.30;;;;;;5095966;28;20036;-66
2022/12/11 05:38:47;;;;;;;4.33;3.20;;;7.60;96.40;;;;;;5096098;28;20389;-67
2022/12/11 05:41:16;;;;;;;4.77;3.83;;;7.60;96.20;;;;;;5095795;28;20040;-66
2022/12/11 05:43:42;;;;;;;4.27;2.97;;;7.60;96.00;;;;;;5095696;28;20390;-67
2022/12/11 05:46:15;;;;;;;5.83;3.90;;;7.70;95.70;;;;;;5095533;28;20046;-67
2022/12/11 05:48:42;;;;;;;6.47;2.80;;;7.70;95.70;;;;;;5096082;28;20377;-67
2022/12/11 05:51:08;;;;;;;4.50;2.57;;;7.70;95.70;;;;;;5095666;28;20173;-66
2022/12/11 05:53:38;;;;;;;3.23;1.83;;;7.70;95.50;;;;;;5095706;28;20034;-66
2022/12/11 05:56:10;;;;;;;2.73;1.87;;;7.70;95.60;;;;;;5095399;28;20029;-66
2022/12/11 05:58:37;;;;;;;4.07;2.55;;;7.70;95.30;;;;;;5095709;28;20086;-67
2022/12/11 06:01:08;;;;;;;9.60;4.00;;;7.60;95.00;;;;;;5095411;28;20060;-66
2022/12/11 06:03:34;;;;;;;6.50;3.00;;;7.70;94.90;;;;;;5095747;28;20474;-66
2022/12/11 06:06:04;;;;;;;2.30;1.47;;;7.70;94.90;;;;;;5095418;28;20043;-66
2022/12/11 06:08:30;;;;;;;2.77;1.20;;;7.60;94.90;;;;;;5095233;28;20058;-66
2022/12/11 06:10:56;;;;;;;2.03;1.10;;;7.60;94.40;;;;;;5094204;28;20039;-66
2022/12/11 06:13:22;;;;;;;1.20;1.07;;;7.60;94.20;;;;;;5095221;28;20032;-66
2022/12/11 06:15:47;;;;;;;1.67;0.93;;;7.60;93.20;;;;;;5095021;28;20024;-67
2022/12/11 06:18:13;;;;;;;1.20;0.90;;;7.60;93.70;;;;;;5094974;28;20089;-66
2022/12/11 06:20:39;;;;;;;1.00;0.90;;;7.60;93.70;;;;;;5095202;28;20074;-67
2022/12/11 06:23:04;;;;;;;2.77;0.80;;;7.60;93.10;;;;;;5094964;28;20440;-67
2022/12/11 06:25:30;;;;;;;0.90;0.80;;;7.60;92.40;;;;;;5094839;28;20040;-66
2022/12/11 06:27:57;;;;;;;1.10;0.80;;;7.50;91.80;;;;;;5095001;28;20425;-65
2022/12/11 06:30:23;;;;;;;1.50;0.80;;;7.50;92.50;;;;;;5094971;28;20394;-66
2022/12/11 06:32:49;;;;;;;1.30;1.00;;;7.50;92.20;;;;;;5095197;28;20028;-66
2022/12/11 06:35:14;;;;;;;1.60;0.93;;;7.50;91.90;;;;;;5094972;28;20098;-67
2022/12/11 06:37:40;;;;;;;2.03;1.20;;;7.50;92.10;;;;;;5094804;28;20474;-66
2022/12/11 06:40:07;;;;;;;2.93;1.57;;;7.50;92.70;;;;;;5094526;28;20081;-67
2022/12/11 06:42:34;;;;;;;3.33;1.57;;;7.50;92.50;;;;;;5094489;28;20024;-66
2022/12/11 06:44:59;;;;;;;2.00;1.40;;;7.50;93.30;;;;;;5094699;28;20036;-66
2022/12/11 06:47:26;;;;;;;2.30;1.40;;;7.50;93.60;;;;;;5093337;28;20036;-66
2022/12/11 06:49:52;;;;;;;3.47;2.37;;;7.50;93.70;;;;;;5094299;28;20063;-66
2022/12/11 06:52:19;;;;;;;3.20;2.60;;;7.50;93.80;;;;;;5094462;28;20401;-66
2022/12/11 06:54:45;;;;;;;4.20;1.67;;;7.50;93.80;;;;;;5093963;28;20032;-67
2022/12/11 06:57:11;;;;;;;3.53;1.47;;;7.50;93.90;;;;;;5094403;28;20363;-66
2022/12/11 06:59:36;;;;;;;1.70;1.50;;;7.50;94.00;;;;;;5094025;28;20051;-66
2022/12/11 07:02:04;;;;;;;3.00;1.70;;;7.50;94.20;;;;;;3866077;28;20693;-66
2022/12/11 07:04:30;;;;;;;3.43;1.77;;;7.50;94.50;;;;;;3244606;28;20742;-67
2022/12/11 07:06:56;;;;;;;2.83;2.10;;;7.50;94.40;;;;;;5001037;28;20032;-66
2022/12/11 07:09:22;;;;;;;3.73;1.77;;;7.50;95.00;;;;;;5093943;28;20039;-66
2022/12/11 07:11:52;;;;;;;2.23;1.70;;;7.50;95.10;;;;;;5094198;28;20123;-67
2022/12/11 07:14:18;;;;;;;2.57;1.60;;;7.50;95.30;;;;;;5094077;28;20036;-66
2022/12/11 07:16:44;;;;;;;2.73;1.47;;;7.50;95.40;;;;;;5093846;28;20036;-66
2022/12/11 07:19:10;;;;;;;2.40;1.60;;;7.50;95.20;;;;;;5093802;28;20055;-66
2022/12/11 07:21:36;;;;;;;6.83;2.03;;;7.50;95.00;;;;;;5093890;28;20414;-66
2022/12/11 07:24:02;;;;;;;5.27;2.60;;;7.50;94.90;;;;;;5094099;28;20529;-64
2022/12/11 07:26:28;;;;;;;5.77;4.07;;;7.50;94.90;;;;;;5093890;28;20040;-66
2022/12/11 07:28:57;;;;;;;9.97;5.60;;;7.50;94.90;;;;;;5093615;28;20028;-66
2022/12/11 07:31:25;;;;;;;8.37;5.67;;;7.50;94.80;;;;;;5093553;28;20481;-66
2022/12/11 07:33:55;;;;;;;6.73;4.83;;;7.50;95.30;;;;;;5093816;28;20521;-66
2022/12/11 07:36:21;;;;;;;6.07;3.70;;;7.50;95.50;;;;;;5093490;28;20038;-66
2022/12/11 07:38:47;;;;;;;4.40;3.40;;;7.50;95.70;;;;;;5093868;28;20052;-67
2022/12/11 07:41:15;;;;;;;4.30;2.90;;;7.50;95.80;;;;;;5093348;28;20048;-67
2022/12/11 07:43:41;;;;;;;3.67;2.80;;;7.50;96.10;;;;;;5093258;28;20082;-67
2022/12/11 07:46:15;;;;;;;5.33;2.83;;;7.50;96.10;;;;;;5093278;28;20071;-67
2022/12/11 07:48:43;;;;;;;5.10;2.60;;;7.50;95.90;;;;;;5059057;22;20060;-66
2022/12/11 07:51:25;;;;;;;5.43;2.67;;;7.60;95.90;;;;;;5033293;28;20088;-66
2022/12/11 07:53:51;;;;;;;4.80;2.70;;;7.60;95.90;;;;;;5033311;28;20051;-68
2022/12/11 07:56:18;;;;;;;4.20;2.37;;;7.50;96.10;;;;;;5033392;28;20087;-68
2022/12/11 07:58:44;;;;;;;3.53;2.40;;;7.60;96.00;;;;;;5033036;28;20038;-68
2022/12/11 08:01:15;;;;;;;4.30;2.53;;;7.60;96.00;;;;;;5033225;28;20459;-65
2022/12/11 08:03:42;;;;;;;4.18;3.10;;;7.60;95.90;;;;;;5032978;28;20057;-68
2022/12/11 08:06:08;;;;;;;6.33;3.33;;;7.70;95.90;;;;;;5032739;28;20125;-69
2022/12/11 08:08:34;;;;;;;4.80;3.10;;;7.70;95.70;;;;;;5032824;28;20487;-68
2022/12/11 08:11:01;;;;;;;6.20;3.63;;;7.70;95.60;;;;;;5032635;28;20052;-69
2022/12/11 08:13:27;;;;;;;6.97;4.80;;;7.80;95.20;;;;;;5032985;28;20033;-68
2022/12/11 08:15:53;;;;;;;6.50;4.57;;;7.80;95.20;;;;;;5032710;28;20549;-68
2022/12/11 08:18:18;;;;;;;6.77;4.80;;;7.80;95.30;;;;;;5032686;28;20114;-68
2022/12/11 08:20:44;;;;;;;7.50;5.13;;;7.80;95.50;;;;;;5033055;28;20079;-68
2022/12/11 08:23:10;;;;;;;11.00;5.73;;;7.80;95.80;;;;;;5033044;28;20080;-68
2022/12/11 08:25:36;;;;;;;8.17;4.43;;;7.80;95.80;;;;;;5033127;28;20033;-68
2022/12/11 08:28:01;;;;;;;4.87;3.50;;;7.80;95.60;;;;;;5032569;28;20029;-69
2022/12/11 08:30:27;;;;;;;5.07;2.40;;;7.80;95.00;;;;;;5032699;28;20137;-68
2022/12/11 08:32:53;;;;;;;4.37;2.10;;;7.80;92.90;;;;;;5033945;28;20029;-68
2022/12/11 08:35:18;;;;;;;2.43;1.73;;;7.90;91.60;;;;;;5036730;28;20064;-71
2022/12/11 08:37:44;;;;;;;2.63;1.43;;;7.90;89.70;;;;;;5036818;28;20029;-69
2022/12/11 08:40:11;;;;;;;1.83;1.33;;;7.90;88.80;;;;;;5036508;28;20123;-71
2022/12/11 08:42:37;;;;;;;1.80;1.17;;;7.80;88.90;;;;;;5036430;28;20033;-70
2022/12/11 08:45:03;;;;;;;4.23;1.57;;;7.90;89.20;;;;;;5036700;28;20034;-70
2022/12/11 08:47:29;;;;;;;2.07;1.20;;;7.80;89.60;;;;;;5036640;28;20050;-69
2022/12/11 08:49:55;;;;;;;2.90;1.90;;;7.80;89.50;;;;;;5036540;28;20042;-69
2022/12/11 08:52:21;;;;;;;4.77;1.80;;;7.80;88.20;;;;;;5036428;28;20120;-71
2022/12/11 08:54:47;;;;;;;3.10;1.50;;;7.80;88.70;;;;;;5036633;28;20113;-69
2022/12/11 08:57:12;;;;;;;1.60;1.20;;;7.80;89.50;;;;;;5036334;28;20092;-71
2022/12/11 08:59:38;;;;;;;2.40;1.67;;;7.80;89.40;;;;;;5036020;28;20050;-70
2022/12/11 09:02:04;;;;;;;2.97;2.07;;;7.80;90.20;;;;;;5036300;28;20041;-70
2022/12/11 09:04:30;;;;;;;2.10;1.60;;;7.80;89.10;;;;;;5036116;28;20044;-70
2022/12/11 09:06:55;;;;;;;2.97;1.90;;;7.80;89.40;;;;;;5034943;28;20104;-69
2022/12/11 09:09:21;;;;;;;2.57;1.73;;;7.80;90.00;;;;;;5036066;28;20124;-70
2022/12/11 09:11:48;;;;;;;1.73;1.33;;;7.80;88.80;;;;;;5036061;28;20045;-70
2022/12/11 09:14:15;;;;;;;2.47;1.30;;;7.80;88.00;;;;;;5036029;28;20030;-70
2022/12/11 09:16:41;;;;;;;2.00;1.43;;;7.80;87.60;;;;;;5036235;28;20411;-70
2022/12/11 09:19:12;;;;;;;2.67;1.50;;;7.80;87.30;;;;;;5035863;28;20411;-71
2022/12/11 09:21:38;;;;;;;255.13;9.40;;;7.80;86.60;;;;;;5036128;28;20025;-69
2022/12/11 09:24:04;;;;;;;6.27;1.83;;;7.80;87.80;;;;;;5035971;28;20408;-70
2022/12/11 09:26:30;;;;;;;17.20;2.13;;;7.80;89.60;;;;;;5035889;28;20519;-70
2022/12/11 09:28:57;;;;;;;3.20;1.77;;;7.70;90.10;;;;;;5035510;28;20037;-70
2022/12/11 09:31:26;;;;;;;2.40;1.30;;;7.70;92.80;;;;;;5035637;28;20216;-70
2022/12/11 09:33:55;;;;;;;2.17;1.20;;;7.70;90.80;;;;;;5033488;28;20498;-71
2022/12/11 09:36:21;;;;;;;2.30;1.37;;;7.70;88.60;;;;;;5032651;28;20491;-71
2022/12/11 09:38:47;;;;;;;3.53;1.70;;;7.70;87.80;;;;;;5034062;28;20133;-70
2022/12/11 09:41:22;;;;;;;1.90;1.10;;;7.70;88.80;;;;;;5035408;28;20037;-70
2022/12/11 09:43:58;;;;;;;2.33;1.30;;;7.70;88.30;;;;;;5035052;28;20480;-69
2022/12/11 09:46:25;;;;;;;2.57;1.20;;;7.70;86.00;;;;;;5035068;28;20506;-69
2022/12/11 09:48:52;;;;;;;2.13;1.03;;;7.70;87.00;;;;;;5035458;28;20049;-70
2022/12/11 09:51:18;;;;;;;2.20;1.00;;;7.70;86.80;;;;;;5035220;28;20042;-70
2022/12/11 09:53:44;;;;;;;1.83;1.30;;;7.70;86.20;;;;;;5035325;28;20037;-70
2022/12/11 09:56:32;;;;;;;2.03;1.23;;;7.70;85.20;;;;;;5035494;28;20120;-70
2022/12/11 09:58:58;;;;;;;1.70;1.10;;;7.70;85.70;;;;;;5032910;28;20056;-71
2022/12/11 10:01:37;;;;;;;2.20;1.23;;;7.70;84.90;;;;;;5032539;28;20034;-71
2022/12/11 10:04:22;;;;;;;1.80;1.10;;;7.70;84.20;;;;;;5032970;28;20079;-70
2022/12/11 10:07:05;;;;;;;1.70;1.30;;;7.60;85.30;;;;;;5034978;28;20438;-70
2022/12/11 10:09:52;;;;;;;1.70;1.03;;;7.60;84.40;;;;;;5035052;28;20034;-70
2022/12/11 10:12:53;;;;;;;4.90;1.50;;;7.60;84.40;;;;;;5034542;28;20041;-71
2022/12/11 10:15:25;;;;;;;2.20;1.10;;;7.60;84.20;;;;;;5026683;28;20037;-70
2022/12/11 10:17:55;;;;;;;1.85;1.25;;;7.60;82.90;;;;;;5034978;28;20090;-70
2022/12/11 10:20:27;;;;;;;2.43;1.10;;;7.60;83.20;;;;;;5034659;28;20045;-71
2022/12/11 10:22:55;;;;;;;1.95;1.35;;;7.60;82.90;;;;;;5034615;28;20034;-70
2022/12/11 10:25:48;;;;;;;4.17;1.37;;;7.50;85.40;;;;;;5033748;28;20490;-71
2022/12/11 10:28:16;;;;;;;1.77;1.10;;;7.50;84.90;;;;;;5036580;28;20029;-70
2022/12/11 10:30:55;;;;;;;1.77;1.17;;;7.50;84.00;;;;;;5037542;28;20108;-71
2022/12/11 10:33:48;;;;;;;1.70;1.20;;;7.40;85.80;;;;;;5034386;28;20545;-69
2022/12/11 10:36:24;;;;;;;1.92;1.30;;;7.40;85.10;;;;;;5034646;28;20423;-69
2022/12/11 10:38:50;;;;;;;3.63;1.40;;;7.40;86.60;;;;;;5034567;28;20117;-72
2022/12/11 10:41:15;;;;;;;2.00;1.43;;;7.30;87.80;;;;;;5034291;28;20120;-71
2022/12/11 10:43:44;;;;;;;1.93;1.00;;;7.30;89.90;;;;;;5034123;28;20076;-71
2022/12/11 10:46:17;;;;;;;1.00;0.80;;;7.20;90.10;;;;;;5034223;28;20061;-71
2022/12/11 10:48:48;;;;;;;1.73;1.02;;;7.20;91.30;;;;;;5033832;28;20073;-72
2022/12/11 10:51:14;;;;;;;1.47;1.10;;;7.20;91.50;;;;;;5034120;28;20040;-71
2022/12/11 10:53:42;;;;;;;1.77;1.20;;;7.20;91.20;;;;;;5034206;28;20057;-71
2022/12/11 10:56:08;;;;;;;1.50;1.00;;;7.20;90.40;;;;;;5033657;28;20041;-71
2022/12/11 10:58:40;;;;;;;1.67;1.00;;;7.20;89.60;;;;;;5033860;28;20095;-71
2022/12/11 11:01:05;;;;;;;2.03;1.40;;;7.20;88.80;;;;;;5034149;28;20040;-70
2022/12/11 11:03:33;;;;;;;2.50;1.40;;;7.20;90.30;;;;;;5033991;28;20029;-71
2022/12/11 11:06:13;;;;;;;1.77;1.17;;;7.20;91.10;;;;;;5034004;28;20407;-71
2022/12/11 11:08:43;;;;;;;1.70;1.20;;;7.10;90.40;;;;;;5033991;28;20029;-71
2022/12/11 11:11:28;;;;;;;2.10;1.00;;;7.10;90.30;;;;;;5033793;28;20125;-71
2022/12/11 11:14:26;;;;;;;2.03;1.10;;;7.10;90.60;;;;;;5033642;28;20042;-71
2022/12/11 11:16:55;;;;;;;2.50;1.50;;;7.00;90.10;;;;;;5000690;28;20048;-71
2022/12/11 11:19:31;;;;;;;2.57;1.70;;;6.90;90.10;;;;;;5033692;28;20772;-71
2022/12/11 11:22:01;;;;;;;3.60;2.10;;;6.90;91.10;;;;;;5033667;28;20108;-71
2022/12/11 11:24:59;;;;;;;16.37;10.10;;;6.80;91.50;;;;;;5033361;28;20052;-69
2022/12/11 11:27:27;;;;;;;11.43;6.90;;;6.80;92.20;;;;;;5028681;28;20048;-71
2022/12/11 11:29:58;;;;;;;2.30;1.60;;;6.80;92.50;;;;;;5033594;28;20069;-69
2022/12/11 11:32:34;;;;;;;2.53;2.03;;;6.70;91.90;;;;;;5033493;28;20048;-70
2022/12/11 11:35:11;;;;;;;4.07;2.03;;;6.70;91.90;;;;;;5033422;28;20061;-70
2022/12/11 11:37:40;;;;;;;3.20;2.30;;;6.70;92.30;;;;;;5032952;28;20106;-71
2022/12/11 11:40:27;;;;;;;3.40;1.83;;;6.70;92.70;;;;;;5032125;28;20053;-70
2022/12/11 11:43:14;;;;;;;2.87;1.50;;;6.60;92.50;;;;;;5033155;28;20500;-71
2022/12/11 11:46:00;;;;;;;2.70;1.93;;;6.60;92.40;;;;;;5032968;28;20037;-69
2022/12/11 11:48:42;;;;;;;3.30;2.20;;;6.60;92.80;;;;;;5032922;28;20734;-70
2022/12/11 11:51:34;;;;;;;2.37;1.50;;;6.60;92.10;;;;;;5033214;28;20428;-69
2022/12/11 11:54:07;;;;;;;1.50;1.00;;;6.60;91.80;;;;;;5032899;28;20033;-69
2022/12/11 11:56:36;;;;;;;1.73;1.10;;;6.60;91.10;;;;;;5032964;28;20091;-70
2022/12/11 11:59:02;;;;;;;3.87;1.77;;;6.60;91.90;;;;;;5030118;28;20533;-70
2022/12/11 12:01:28;;;;;;;2.10;1.20;;;6.60;91.70;;;;;;5029964;28;20033;-71
2022/12/11 12:03:54;;;;;;;8.07;3.00;;;6.50;93.10;;;;;;5031961;28;20052;-71
2022/12/11 12:06:32;;;;;;;80.60;11.63;;;6.50;93.90;;;;;;5031675;28;20037;-69
2022/12/11 12:09:05;;;;;;;485.27;35.20;;;6.40;93.80;;;;;;5032404;28;20125;-69
2022/12/11 12:11:41;;;;;;;328.27;31.87;;;6.50;93.90;;;;;;5032783;28;20387;-70
2022/12/11 12:14:38;;;;;;;17.40;7.37;;;6.50;92.70;;;;;;5033088;28;20037;-69
2022/12/11 12:17:25;;;;;;;4.20;2.47;;;6.40;92.20;;;;;;5032844;28;20499;-69
2022/12/11 12:20:02;;;;;;;33.90;5.13;;;6.40;92.00;;;;;;5032668;28;20395;-69
2022/12/11 12:23:12;;;;;;;3.47;2.20;;;6.50;92.10;;;;;;5032594;28;20507;-70
2022/12/11 12:25:47;;;;;;;21.03;4.07;;;6.40;92.10;;;;;;4968440;28;20899;-72
2022/12/11 12:28:44;;;;;;;102.33;20.53;;;6.40;91.60;;;;;;5021260;28;20438;-69
2022/12/11 12:31:39;;;;;;;37.57;22.57;;;6.30;92.00;;;;;;5032596;28;20033;-70
2022/12/11 12:34:04;;;;;;;107.20;56.43;;;6.30;93.20;;;;;;5032691;28;20034;-70
2022/12/11 12:37:16;;;;;;;526.17;305.10;;;6.30;92.30;;;;;;5032351;28;20480;-70
2022/12/11 12:40:09;;;;;;;19.17;10.80;;;6.30;92.10;;;;;;5025231;28;20037;-70
2022/12/11 12:43:01;;;;;;;51.78;17.52;;;6.30;92.30;;;;;;5032437;28;20037;-70
2022/12/11 12:45:42;;;;;;;3.17;1.98;;;6.20;92.40;;;;;;5032253;28;20040;-69
2022/12/11 12:48:09;;;;;;;2.43;1.70;;;6.20;92.00;;;;;;5031112;28;20056;-69
2022/12/11 12:50:45;;;;;;;3.10;1.90;;;6.20;91.10;;;;;;5032368;28;20026;-70
2022/12/11 12:53:22;;;;;;;2.47;1.90;;;6.20;91.60;;;;;;5032047;28;20052;-70
2022/12/11 12:55:48;;;;;;;2.77;1.73;;;6.20;91.00;;;;;;5032422;28;20029;-69
2022/12/11 12:58:41;;;;;;;3.63;1.80;;;6.20;91.30;;;;;;5028691;28;20076;-69
2022/12/11 13:01:18;;;;;;;3.92;1.95;;;6.20;91.20;;;;;;5029404;28;20045;-70
2022/12/11 13:04:03;;;;;;;2.83;1.80;;;6.20;91.20;;;;;;5030021;28;20037;-70
2022/12/11 13:06:33;;;;;;;2.20;1.90;;;6.20;90.90;;;;;;5032292;28;20538;-70
2022/12/11 13:09:17;;;;;;;3.20;1.90;;;6.20;91.40;;;;;;5032342;28;20443;-70
2022/12/11 13:11:45;;;;;;;3.37;2.00;;;6.20;91.30;;;;;;5030704;28;20349;-71
2022/12/11 13:14:14;;;;;;;2.67;1.90;;;6.10;91.90;;;;;;5032113;28;20068;-70
2022/12/11 13:16:45;;;;;;;2.47;1.67;;;6.10;91.90;;;;;;5032200;28;20038;-70
2022/12/11 13:19:24;;;;;;;5.23;2.10;;;6.10;91.60;;;;;;5033729;28;20044;-70
2022/12/11 13:22:13;;;;;;;3.10;1.83;;;6.20;91.00;;;;;;5035601;28;20067;-70
2022/12/11 13:25:18;;;;;;;13.93;4.10;;;6.20;91.10;;;;;;5035661;28;20065;-69
2022/12/11 13:27:43;;;;;;;3.10;2.23;;;6.10;91.50;;;;;;5035549;28;20091;-70